Time;durP1;ratioP1;P1;durP2;ratioP2;P2;SDS_P1;SDS_P2;PMS_P1;PMS_P2;Temp;Humidity;BMP_temperature;BMP_pressure;BME280_temperature;BME280_humidity;BME280_pressure;Samples;Min_cycle;Max_cycle;Signal;HPM_P1;HPM_P2
2021/03/13 00:02:28;;;;;;;1.63;0.80;;;7.40;74.30;;;;;;5103270;27;27607;-40
2021/03/13 00:05:14;;;;;;;2.42;1.08;;;7.30;74.30;;;;;;5106982;28;27421;-40
2021/03/13 00:07:58;;;;;;;3.45;1.05;;;7.30;74.30;;;;;;5107601;28;27390;-39
2021/03/13 00:10:44;;;;;;;3.33;0.93;;;7.30;74.30;;;;;;5107518;28;27324;-41
2021/03/13 00:13:28;;;;;;;1.60;0.75;;;7.30;74.50;;;;;;5106638;28;27488;-40
2021/03/13 00:16:13;;;;;;;2.10;1.20;;;7.20;74.50;;;;;;5107724;28;27375;-40
2021/03/13 00:18:57;;;;;;;3.63;1.40;;;7.20;74.70;;;;;;5107367;28;27338;-40
2021/03/13 00:21:42;;;;;;;3.22;1.80;;;7.20;75.10;;;;;;5106838;28;27449;-40
2021/03/13 00:24:26;;;;;;;3.33;1.35;;;7.10;75.20;;;;;;5107229;28;27537;-37
2021/03/13 00:27:11;;;;;;;1.98;1.15;;;7.10;75.40;;;;;;5107553;28;27352;-41
2021/03/13 00:29:55;;;;;;;2.35;1.20;;;7.10;75.60;;;;;;5107470;28;27400;-40
2021/03/13 00:32:40;;;;;;;2.05;1.20;;;7.00;75.50;;;;;;5107186;28;27483;-39
2021/03/13 00:35:25;;;;;;;4.78;1.33;;;7.00;75.60;;;;;;5107049;28;27489;-39
2021/03/13 00:38:09;;;;;;;3.35;1.20;;;7.00;75.30;;;;;;5107375;28;27454;-40
2021/03/13 00:40:54;;;;;;;2.95;1.40;;;6.90;75.20;;;;;;5106708;28;27444;-39
2021/03/13 00:43:38;;;;;;;2.35;1.10;;;6.90;75.20;;;;;;5106432;28;27955;-39
2021/03/13 00:46:22;;;;;;;1.70;1.20;;;6.90;75.40;;;;;;5107228;28;27460;-41
2021/03/13 00:49:07;;;;;;;2.88;1.13;;;6.90;75.50;;;;;;5103931;28;27399;-40
2021/03/13 00:51:52;;;;;;;2.20;0.90;;;6.90;75.80;;;;;;5103498;28;27441;-40
2021/03/13 00:54:37;;;;;;;1.00;0.82;;;6.90;76.00;;;;;;5102985;28;27382;-42
2021/03/13 00:57:22;;;;;;;2.15;1.10;;;6.90;76.50;;;;;;5102946;28;27415;-40
2021/03/13 01:00:08;;;;;;;1.27;0.90;;;6.90;76.80;;;;;;5107026;28;27476;-42
2021/03/13 01:02:56;;;;;;;1.40;1.00;;;6.90;76.70;;;;;;5103691;28;27371;-39
2021/03/13 01:05:43;;;;;;;3.17;0.90;;;6.90;77.00;;;;;;5102857;28;27947;-39
2021/03/13 01:08:27;;;;;;;2.92;1.10;;;6.90;77.00;;;;;;5102651;28;27540;-39
2021/03/13 01:11:29;;;;;;;2.25;1.10;;;6.90;76.70;;;;;;5103445;28;27395;-42
2021/03/13 01:14:19;;;;;;;1.00;0.82;;;7.00;76.50;;;;;;5103140;28;27393;-39
2021/03/13 01:17:06;;;;;;;3.45;1.10;;;7.00;76.40;;;;;;5102643;28;27492;-40
2021/03/13 01:19:51;;;;;;;1.55;0.85;;;7.00;76.10;;;;;;5106322;28;27471;-41
2021/03/13 01:22:36;;;;;;;2.60;1.05;;;7.00;75.90;;;;;;5105516;28;27478;-40
2021/03/13 01:25:22;;;;;;;3.47;1.13;;;7.00;76.30;;;;;;5103319;28;27450;-42
2021/03/13 01:28:07;;;;;;;2.05;1.00;;;7.00;76.40;;;;;;5106523;28;27478;-42
2021/03/13 01:30:51;;;;;;;1.92;1.00;;;6.90;76.60;;;;;;5102458;28;27450;-40
2021/03/13 01:33:36;;;;;;;3.03;1.10;;;6.90;76.80;;;;;;5105588;28;27413;-44
2021/03/13 01:36:22;;;;;;;2.42;1.20;;;6.90;76.70;;;;;;5105820;28;27435;-40
2021/03/13 01:39:08;;;;;;;2.75;1.42;;;6.90;76.60;;;;;;5106315;28;27588;-40
2021/03/13 01:41:53;;;;;;;1.75;1.13;;;6.90;76.40;;;;;;5101976;28;27502;-41
2021/03/13 01:44:38;;;;;;;3.10;1.40;;;6.80;76.20;;;;;;5102056;28;27419;-40
2021/03/13 01:47:24;;;;;;;1.95;1.00;;;6.80;76.40;;;;;;5102936;28;27490;-40
2021/03/13 01:50:13;;;;;;;2.63;1.38;;;6.70;76.30;;;;;;5102592;28;27853;-40
2021/03/13 01:53:00;;;;;;;3.00;1.73;;;6.70;76.30;;;;;;5101638;28;27425;-39
2021/03/13 01:55:51;;;;;;;3.03;1.38;;;6.60;76.20;;;;;;5102162;28;27389;-39
2021/03/13 01:58:36;;;;;;;3.03;1.77;;;6.60;76.30;;;;;;5101752;28;27332;-39
2021/03/13 02:01:24;;;;;;;4.47;1.48;;;6.50;76.20;;;;;;5101948;28;27385;-39
2021/03/13 02:04:11;;;;;;;2.95;1.40;;;6.50;76.50;;;;;;5103025;28;27643;-40
2021/03/13 02:07:06;;;;;;;3.67;1.40;;;6.50;76.60;;;;;;5104994;28;27427;-39
2021/03/13 02:09:58;;;;;;;2.60;1.30;;;6.40;76.70;;;;;;5102311;28;27469;-39
2021/03/13 02:13:07;;;;;;;3.92;1.55;;;6.40;77.10;;;;;;5101541;28;27342;-39
2021/03/13 02:16:20;;;;;;;4.00;1.42;;;6.30;77.20;;;;;;5105429;28;27407;-39
2021/03/13 02:19:21;;;;;;;3.25;1.40;;;6.30;77.10;;;;;;5102197;28;27395;-40
2021/03/13 02:22:06;;;;;;;2.03;1.20;;;6.20;77.30;;;;;;5102912;28;27355;-40
2021/03/13 02:25:31;;;;;;;5.03;1.17;;;6.20;77.50;;;;;;5087672;28;27907;-40
2021/03/13 02:28:21;;;;;;;1.50;1.02;;;6.20;77.50;;;;;;5101024;28;27370;-39
2021/03/13 02:31:07;;;;;;;1.00;0.70;;;6.20;77.70;;;;;;5074287;28;27418;-40
2021/03/13 02:33:53;;;;;;;2.15;1.25;;;6.10;77.80;;;;;;5104485;28;27411;-40
2021/03/13 02:36:46;;;;;;;3.10;0.98;;;6.10;77.80;;;;;;5087918;28;27934;-40
2021/03/13 02:39:32;;;;;;;2.35;1.08;;;6.10;77.70;;;;;;5101357;28;27481;-39
2021/03/13 02:42:20;;;;;;;5.50;1.33;;;6.10;78.00;;;;;;5101123;28;27485;-38
2021/03/13 02:45:06;;;;;;;4.43;1.13;;;6.10;78.00;;;;;;5101102;28;27364;-40
2021/03/13 02:47:52;;;;;;;3.33;1.08;;;6.10;78.10;;;;;;5101939;28;27887;-40
2021/03/13 02:50:38;;;;;;;3.95;1.10;;;6.10;78.20;;;;;;5100958;28;27393;-39
2021/03/13 02:53:26;;;;;;;4.05;1.42;;;6.10;78.20;;;;;;5073314;28;27470;-40
2021/03/13 02:56:15;;;;;;;6.13;1.08;;;6.10;78.30;;;;;;5101121;28;27453;-40
2021/03/13 02:59:00;;;;;;;6.35;0.93;;;6.10;78.10;;;;;;5088774;28;27927;-40
2021/03/13 03:01:50;;;;;;;6.20;1.40;;;6.10;78.00;;;;;;5090831;28;27348;-39
2021/03/13 03:04:36;;;;;;;6.55;1.42;;;6.10;78.00;;;;;;5104084;28;26879;-39
2021/03/13 03:07:25;;;;;;;4.13;1.45;;;6.00;78.00;;;;;;5101016;28;27415;-40
2021/03/13 03:10:16;;;;;;;3.85;1.02;;;6.10;78.10;;;;;;5100950;28;27952;-40
2021/03/13 03:13:01;;;;;;;9.45;1.27;;;6.10;78.00;;;;;;5104384;28;27418;-39
2021/03/13 03:15:47;;;;;;;5.13;1.08;;;6.10;78.20;;;;;;5089646;28;27454;-39
2021/03/13 03:18:32;;;;;;;4.82;1.30;;;6.10;78.30;;;;;;5086626;28;27433;-39
2021/03/13 03:21:19;;;;;;;2.90;1.10;;;6.10;78.10;;;;;;5087235;28;27884;-39
2021/03/13 03:24:06;;;;;;;7.45;1.00;;;6.10;78.30;;;;;;5101193;28;27449;-39
2021/03/13 03:26:50;;;;;;;6.43;1.10;;;6.10;78.30;;;;;;5100740;28;27448;-39
2021/03/13 03:29:35;;;;;;;4.85;2.15;;;6.10;78.00;;;;;;5100691;28;27415;-39
2021/03/13 03:32:22;;;;;;;2.92;0.82;;;6.10;77.90;;;;;;5100862;28;27296;-39
2021/03/13 03:35:07;;;;;;;4.50;1.02;;;6.20;78.10;;;;;;5104394;28;27417;-39
2021/03/13 03:37:56;;;;;;;2.65;1.10;;;6.10;78.20;;;;;;5105572;27;27376;-39
2021/03/13 03:40:41;;;;;;;2.97;0.82;;;6.10;78.20;;;;;;5108272;28;27320;-40
2021/03/13 03:43:40;;;;;;;1.27;0.70;;;6.20;78.30;;;;;;5103855;28;27489;-40
2021/03/13 03:46:27;;;;;;;2.78;0.93;;;6.10;78.50;;;;;;5107880;28;27627;-39
2021/03/13 03:49:13;;;;;;;4.97;0.85;;;6.20;78.60;;;;;;5089954;28;27348;-39
2021/03/13 03:52:06;;;;;;;2.70;0.70;;;6.20;78.60;;;;;;5091502;28;27403;-39
2021/03/13 03:54:51;;;;;;;4.93;0.90;;;6.20;78.40;;;;;;5103963;28;28058;-39
2021/03/13 03:57:35;;;;;;;2.45;0.77;;;6.20;78.50;;;;;;5106975;28;27414;-39
2021/03/13 04:00:20;;;;;;;4.32;0.88;;;6.30;78.50;;;;;;5107012;28;27501;-39
2021/03/13 04:03:06;;;;;;;2.17;1.02;;;6.30;78.50;;;;;;5107825;28;27468;-39
2021/03/13 04:05:51;;;;;;;3.45;0.82;;;6.30;78.20;;;;;;5107561;28;27381;-40
2021/03/13 04:08:37;;;;;;;1.98;0.70;;;6.40;78.40;;;;;;5092416;28;27553;-40
2021/03/13 04:11:22;;;;;;;2.85;0.73;;;6.40;78.50;;;;;;5107747;28;27328;-40
2021/03/13 04:14:06;;;;;;;1.20;0.60;;;6.40;78.30;;;;;;5107806;28;27386;-39
2021/03/13 04:16:51;;;;;;;3.20;0.88;;;6.40;78.00;;;;;;5106903;28;27429;-39
2021/03/13 04:19:35;;;;;;;2.10;0.70;;;6.40;78.00;;;;;;5107298;28;27461;-39
2021/03/13 04:22:24;;;;;;;3.00;0.88;;;6.40;78.20;;;;;;5106238;28;27429;-39
2021/03/13 04:25:09;;;;;;;4.30;0.80;;;6.40;78.10;;;;;;5106859;28;27378;-39
2021/03/13 04:27:53;;;;;;;2.45;0.80;;;6.50;78.00;;;;;;5107506;28;27331;-40
2021/03/13 04:30:38;;;;;;;2.72;1.00;;;6.50;78.00;;;;;;5106515;28;27365;-40
2021/03/13 04:33:22;;;;;;;4.20;0.98;;;6.50;77.90;;;;;;5074534;28;27405;-38
2021/03/13 04:36:08;;;;;;;3.03;1.27;;;6.50;77.80;;;;;;5103916;28;27374;-38
2021/03/13 04:38:53;;;;;;;3.72;0.90;;;6.50;77.80;;;;;;5107255;28;27946;-39
2021/03/13 04:41:38;;;;;;;1.27;0.85;;;6.50;78.00;;;;;;5107263;28;27382;-39
2021/03/13 04:44:22;;;;;;;2.53;0.90;;;6.50;77.90;;;;;;5106625;28;27383;-39
2021/03/13 04:47:07;;;;;;;4.05;1.00;;;6.60;78.20;;;;;;5092181;28;27355;-39
2021/03/13 04:49:51;;;;;;;3.17;0.95;;;6.60;78.20;;;;;;5091013;28;27328;-39
2021/03/13 04:52:36;;;;;;;5.60;0.93;;;6.60;77.90;;;;;;5091530;28;27409;-39
2021/03/13 04:55:20;;;;;;;7.18;1.00;;;6.60;77.90;;;;;;5107180;28;27473;-39
2021/03/13 04:58:05;;;;;;;1.77;1.40;;;6.60;77.90;;;;;;5102780;28;27451;-37
2021/03/13 05:00:51;;;;;;;3.22;0.75;;;6.60;78.20;;;;;;5106010;28;27953;-39
2021/03/13 05:03:35;;;;;;;2.42;0.70;;;6.70;78.30;;;;;;5106638;28;27458;-39
2021/03/13 05:06:20;;;;;;;2.30;0.68;;;6.70;78.20;;;;;;5107059;28;27450;-39
2021/03/13 05:09:05;;;;;;;1.48;1.08;;;6.70;78.10;;;;;;5106914;28;27463;-39
2021/03/13 05:11:49;;;;;;;3.42;1.00;;;6.70;78.00;;;;;;5106178;28;27457;-39
2021/03/13 05:14:34;;;;;;;4.10;0.77;;;6.70;78.50;;;;;;5106800;28;27418;-39
2021/03/13 05:17:19;;;;;;;7.55;0.65;;;6.70;77.90;;;;;;5106781;28;27458;-39
2021/03/13 05:20:05;;;;;;;3.05;0.70;;;6.80;77.80;;;;;;5106693;28;27456;-39
2021/03/13 05:22:50;;;;;;;1.77;0.68;;;6.80;77.60;;;;;;5105807;28;27888;-39
2021/03/13 05:25:34;;;;;;;4.20;0.80;;;6.80;77.60;;;;;;5106560;28;27448;-40
2021/03/13 05:28:19;;;;;;;5.25;1.08;;;6.80;77.70;;;;;;5106372;28;27466;-39
2021/03/13 05:31:03;;;;;;;7.22;1.10;;;6.80;77.90;;;;;;5106527;28;27477;-39
2021/03/13 05:33:48;;;;;;;2.33;0.90;;;6.80;77.80;;;;;;5103183;28;27439;-39
2021/03/13 05:36:33;;;;;;;3.83;1.30;;;6.90;77.60;;;;;;5088082;28;27437;-39
2021/03/13 05:39:17;;;;;;;1.92;1.08;;;6.90;77.50;;;;;;5106048;28;27498;-36
2021/03/13 05:42:02;;;;;;;4.60;1.48;;;6.90;77.50;;;;;;5106084;28;27391;-39
2021/03/13 05:44:46;;;;;;;4.80;2.38;;;6.90;77.40;;;;;;5105530;28;27991;-41
2021/03/13 05:47:31;;;;;;;2.95;1.58;;;6.90;77.30;;;;;;5106265;28;27608;-39
2021/03/13 05:50:17;;;;;;;5.20;1.48;;;6.90;77.20;;;;;;5106245;28;27370;-39
2021/03/13 05:53:03;;;;;;;3.83;1.50;;;7.00;77.30;;;;;;5105651;28;27426;-39
2021/03/13 05:55:47;;;;;;;2.22;1.10;;;7.00;77.00;;;;;;5105809;28;27423;-39
2021/03/13 05:58:32;;;;;;;6.47;1.80;;;7.00;77.10;;;;;;5106031;28;27466;-39
2021/03/13 06:01:16;;;;;;;4.38;1.10;;;7.00;76.90;;;;;;5104864;27;27474;-39
2021/03/13 06:04:01;;;;;;;3.33;1.48;;;7.10;76.70;;;;;;5104988;28;27413;-38
2021/03/13 06:06:45;;;;;;;4.90;1.13;;;7.10;76.60;;;;;;5102336;28;27362;-39
2021/03/13 06:09:29;;;;;;;3.47;1.30;;;7.10;76.50;;;;;;5104819;28;27402;-39
2021/03/13 06:12:14;;;;;;;3.28;1.30;;;7.20;76.40;;;;;;5105717;28;27429;-39
2021/03/13 06:14:58;;;;;;;6.45;1.17;;;7.20;76.30;;;;;;5105840;28;27393;-39
2021/03/13 06:17:57;;;;;;;3.35;0.90;;;7.30;76.20;;;;;;5102430;28;27965;-39
2021/03/13 06:20:41;;;;;;;1.73;1.00;;;7.30;75.90;;;;;;5105036;28;27441;-40
2021/03/13 06:23:32;;;;;;;4.65;1.17;;;7.40;75.70;;;;;;5105749;28;27397;-42
2021/03/13 06:26:16;;;;;;;3.28;1.00;;;7.40;75.50;;;;;;5104627;28;27442;-40
2021/03/13 06:29:07;;;;;;;2.28;0.90;;;7.40;75.40;;;;;;5105307;28;27864;-39
2021/03/13 06:32:04;;;;;;;3.88;0.98;;;7.40;75.50;;;;;;5090807;28;27443;-39
2021/03/13 06:34:48;;;;;;;3.03;1.02;;;7.50;75.60;;;;;;5105612;28;27488;-39
2021/03/13 06:37:33;;;;;;;6.50;1.08;;;7.50;75.20;;;;;;5105465;28;27403;-40
2021/03/13 06:40:36;;;;;;;4.13;0.88;;;7.60;74.80;;;;;;5105418;28;27431;-39
2021/03/13 06:43:31;;;;;;;2.58;0.80;;;7.70;74.50;;;;;;5105367;28;27401;-40
2021/03/13 06:46:21;;;;;;;7.10;1.70;;;7.80;73.80;;;;;;5105145;28;27386;-39
2021/03/13 06:49:05;;;;;;;3.95;0.90;;;7.90;74.10;;;;;;5105018;28;27456;-36
2021/03/13 06:51:50;;;;;;;5.25;0.95;;;8.00;73.50;;;;;;5104836;28;27954;-39
2021/03/13 06:54:35;;;;;;;4.97;1.00;;;8.10;72.90;;;;;;5105203;28;27477;-39
2021/03/13 06:57:20;;;;;;;4.28;2.10;;;8.20;72.80;;;;;;5104933;28;27484;-40
2021/03/13 07:00:05;;;;;;;5.97;1.85;;;8.20;72.80;;;;;;5089349;28;27422;-39
2021/03/13 07:02:50;;;;;;;7.72;2.63;;;8.30;72.40;;;;;;5104752;28;27900;-39
2021/03/13 07:05:36;;;;;;;4.43;1.65;;;8.40;72.10;;;;;;5100969;28;27556;-40
2021/03/13 07:08:27;;;;;;;3.22;1.58;;;8.40;72.60;;;;;;5104972;28;27468;-42
2021/03/13 07:11:12;;;;;;;7.30;1.38;;;8.40;72.40;;;;;;5104861;28;27473;-39
2021/03/13 07:13:57;;;;;;;2.15;1.13;;;8.40;72.20;;;;;;5104326;28;27449;-39
2021/03/13 07:16:41;;;;;;;3.47;1.05;;;8.60;70.90;;;;;;5104726;28;27584;-38
2021/03/13 07:19:26;;;;;;;4.50;1.05;;;8.90;70.70;;;;;;5104710;28;27674;-39
2021/03/13 07:22:11;;;;;;;2.28;0.93;;;9.10;70.20;;;;;;5102105;28;27633;-41
2021/03/13 07:24:56;;;;;;;2.50;1.00;;;9.30;69.10;;;;;;5102959;28;27551;-39
2021/03/13 07:27:40;;;;;;;1.77;0.65;;;9.50;69.10;;;;;;5089188;28;27371;-40
2021/03/13 07:30:26;;;;;;;4.95;0.85;;;9.60;67.80;;;;;;5103990;28;27378;-39
2021/03/13 07:33:11;;;;;;;1.02;0.82;;;9.60;68.00;;;;;;5103552;28;27403;-39
2021/03/13 07:35:55;;;;;;;4.65;1.20;;;9.70;67.50;;;;;;5104684;28;27421;-39
2021/03/13 07:38:40;;;;;;;2.20;0.70;;;9.80;67.10;;;;;;5103582;28;27330;-39
2021/03/13 07:41:25;;;;;;;0.43;0.40;;;9.90;66.90;;;;;;5104366;28;27427;-40
2021/03/13 07:44:10;;;;;;;1.30;0.57;;;9.90;65.50;;;;;;5104590;28;27379;-39
2021/03/13 07:46:54;;;;;;;1.20;0.60;;;9.90;65.80;;;;;;5104459;28;27333;-40
2021/03/13 07:49:39;;;;;;;1.48;0.57;;;9.80;65.60;;;;;;5101145;28;27467;-40
2021/03/13 07:52:23;;;;;;;2.75;0.88;;;9.90;66.30;;;;;;5100044;28;27331;-40
2021/03/13 07:55:10;;;;;;;2.95;0.70;;;9.90;65.80;;;;;;5103061;28;27403;-39
2021/03/13 07:57:55;;;;;;;1.90;0.80;;;9.90;65.90;;;;;;5100759;28;27318;-39
2021/03/13 08:00:44;;;;;;;1.70;0.65;;;9.90;65.90;;;;;;5088973;28;27399;-40
2021/03/13 08:03:35;;;;;;;6.75;1.17;;;10.00;65.20;;;;;;5104409;28;27454;-41
2021/03/13 08:06:20;;;;;;;2.40;0.90;;;10.10;64.40;;;;;;5104492;28;27378;-40
2021/03/13 08:09:22;;;;;;;5.00;1.80;;;10.30;64.40;;;;;;5085760;28;27405;-40
2021/03/13 08:12:07;;;;;;;3.80;1.48;;;10.90;61.60;;;;;;5104225;28;27336;-38
2021/03/13 08:14:52;;;;;;;6.85;1.20;;;11.40;59.70;;;;;;5104270;28;27413;-41
2021/03/13 08:17:40;;;;;;;6.20;1.05;;;11.90;58.00;;;;;;5088758;28;27413;-41
2021/03/13 08:20:32;;;;;;;4.25;0.93;;;12.70;56.30;;;;;;5100401;28;27386;-40
2021/03/13 08:23:18;;;;;;;3.35;0.98;;;13.90;53.50;;;;;;5101478;28;27320;-41
2021/03/13 08:26:03;;;;;;;1.25;0.77;;;15.00;51.20;;;;;;5103328;28;27308;-40
2021/03/13 08:28:47;;;;;;;3.50;0.80;;;15.90;48.60;;;;;;5107213;28;27311;-40
2021/03/13 08:31:32;;;;;;;1.55;0.70;;;16.90;46.70;;;;;;5107278;28;27336;-41
2021/03/13 08:34:17;;;;;;;6.05;0.77;;;17.80;44.50;;;;;;5106583;28;27401;-40
2021/03/13 08:37:15;;;;;;;0.95;0.65;;;18.60;42.60;;;;;;5107392;28;27389;-40
2021/03/13 08:40:21;;;;;;;4.22;0.68;;;19.00;42.20;;;;;;5107030;28;27329;-40
2021/03/13 08:43:53;;;;;;;1.90;1.02;;;19.10;41.60;;;;;;5106932;28;27347;-40
2021/03/13 08:46:42;;;;;;;1.63;0.73;;;18.80;41.80;;;;;;5106386;28;27514;-40
2021/03/13 08:49:29;;;;;;;1.77;0.70;;;18.50;42.90;;;;;;5106796;28;27403;-40
2021/03/13 08:52:18;;;;;;;2.08;0.73;;;18.40;42.90;;;;;;5106646;28;27325;-39
2021/03/13 08:55:04;;;;;;;1.27;0.50;;;18.20;43.00;;;;;;5107081;28;28032;-40
2021/03/13 08:57:49;;;;;;;3.58;0.60;;;18.10;44.60;;;;;;5103550;28;27322;-40
2021/03/13 09:00:33;;;;;;;2.30;0.50;;;17.80;43.80;;;;;;5106306;28;27387;-41
2021/03/13 09:03:18;;;;;;;2.72;0.60;;;17.50;44.40;;;;;;5103741;28;27396;-40
2021/03/13 09:06:02;;;;;;;2.70;1.10;;;17.30;44.40;;;;;;5102878;28;27357;-42
2021/03/13 09:08:47;;;;;;;0.95;0.60;;;17.00;45.50;;;;;;5105869;28;27426;-41
2021/03/13 09:11:32;;;;;;;4.40;0.80;;;16.80;45.70;;;;;;5106822;28;27316;-40
2021/03/13 09:14:16;;;;;;;5.20;0.80;;;16.60;46.10;;;;;;5106138;28;27466;-43
2021/03/13 09:17:11;;;;;;;3.53;0.77;;;16.30;46.80;;;;;;5105664;28;27414;-40
2021/03/13 09:20:05;;;;;;;1.58;0.60;;;16.10;46.40;;;;;;5105699;28;27548;-41
2021/03/13 09:22:50;;;;;;;1.60;0.60;;;15.90;46.60;;;;;;5105782;28;27498;-40
2021/03/13 09:25:35;;;;;;;2.67;0.73;;;15.70;47.80;;;;;;5088209;28;27470;-40
2021/03/13 09:28:19;;;;;;;1.55;0.73;;;15.60;48.20;;;;;;5106290;28;27477;-41
2021/03/13 09:31:03;;;;;;;3.58;1.73;;;15.50;48.10;;;;;;5106530;28;27536;-42
2021/03/13 09:33:48;;;;;;;6.05;0.57;;;15.40;47.50;;;;;;5091165;28;27416;-40
2021/03/13 09:36:33;;;;;;;1.67;0.75;;;15.40;48.10;;;;;;5106085;27;27423;-39
2021/03/13 09:39:26;;;;;;;1.33;0.60;;;15.30;48.20;;;;;;5106423;28;27439;-43
2021/03/13 09:42:13;;;;;;;1.02;0.60;;;15.30;47.90;;;;;;5102443;28;27385;-40
2021/03/13 09:45:09;;;;;;;3.75;0.73;;;15.20;48.40;;;;;;5105799;28;27410;-39
2021/03/13 09:48:02;;;;;;;2.20;1.45;;;15.30;48.40;;;;;;5106049;28;27474;-41
2021/03/13 09:50:47;;;;;;;1.80;0.88;;;15.30;47.60;;;;;;5106411;28;27846;-41
2021/03/13 09:53:32;;;;;;;0.82;0.73;;;15.40;47.30;;;;;;5105189;28;27522;-40
2021/03/13 09:56:23;;;;;;;3.75;1.00;;;15.60;48.30;;;;;;5106025;28;27467;-40
2021/03/13 09:59:07;;;;;;;3.10;0.80;;;15.60;47.40;;;;;;5091767;28;27325;-40
2021/03/13 10:01:52;;;;;;;0.95;0.57;;;15.70;47.70;;;;;;5105296;28;27464;-40
2021/03/13 10:04:36;;;;;;;1.13;0.50;;;15.60;48.00;;;;;;5105395;28;27454;-40
2021/03/13 10:07:21;;;;;;;2.00;0.65;;;15.70;48.30;;;;;;5105327;28;27414;-40
2021/03/13 10:10:05;;;;;;;2.70;0.80;;;15.60;48.80;;;;;;5105006;28;27484;-40
2021/03/13 10:12:54;;;;;;;3.70;0.85;;;15.70;48.90;;;;;;5101796;28;27489;-40
2021/03/13 10:15:38;;;;;;;1.85;0.63;;;15.60;48.60;;;;;;5105920;28;27327;-40
2021/03/13 10:18:28;;;;;;;2.47;0.95;;;15.60;48.20;;;;;;5105137;28;27329;-41
2021/03/13 10:21:13;;;;;;;1.45;0.80;;;15.50;47.90;;;;;;5104962;28;27446;-40
2021/03/13 10:23:57;;;;;;;2.17;0.70;;;15.40;48.50;;;;;;5105731;28;27445;-40
2021/03/13 10:26:42;;;;;;;6.30;0.70;;;15.40;49.10;;;;;;5105617;28;27503;-42
2021/03/13 10:29:26;;;;;;;3.97;0.50;;;15.40;48.90;;;;;;5104967;28;27527;-40
2021/03/13 10:32:11;;;;;;;0.80;0.57;;;15.40;48.50;;;;;;5104563;28;27421;-40
2021/03/13 10:35:16;;;;;;;0.90;0.80;;;15.40;48.80;;;;;;5105220;28;27339;-37
2021/03/13 10:38:02;;;;;;;1.52;0.60;;;15.50;48.80;;;;;;5105234;28;27402;-39
2021/03/13 10:40:49;;;;;;;2.30;0.60;;;15.50;48.40;;;;;;5101898;28;26931;-42
2021/03/13 10:43:40;;;;;;;1.38;0.60;;;15.60;48.40;;;;;;5105112;28;27399;-42
2021/03/13 10:46:25;;;;;;;2.53;0.40;;;15.60;48.00;;;;;;5105163;28;27997;-39
2021/03/13 10:49:10;;;;;;;1.80;0.50;;;15.60;48.50;;;;;;5104603;28;27351;-40
2021/03/13 10:51:55;;;;;;;3.40;0.52;;;15.60;48.50;;;;;;5090141;28;27447;-40
2021/03/13 10:54:45;;;;;;;2.10;0.50;;;15.60;48.20;;;;;;5104949;28;27328;-40
2021/03/13 10:57:29;;;;;;;0.50;0.40;;;15.50;47.70;;;;;;5105152;28;27828;-40
2021/03/13 11:00:15;;;;;;;1.52;0.50;;;15.50;48.20;;;;;;5105052;28;27465;-40
2021/03/13 11:02:59;;;;;;;0.40;0.30;;;15.40;48.10;;;;;;5104879;28;27491;-41
2021/03/13 11:05:46;;;;;;;1.20;0.55;;;15.30;48.20;;;;;;5104842;28;27473;-42
2021/03/13 11:08:31;;;;;;;0.77;0.50;;;15.10;47.50;;;;;;5103874;28;27493;-40
2021/03/13 11:11:15;;;;;;;2.90;0.77;;;15.00;48.10;;;;;;5104919;28;27599;-41
2021/03/13 11:14:00;;;;;;;6.95;0.88;;;14.90;48.40;;;;;;5103937;28;27413;-39
2021/03/13 11:16:45;;;;;;;1.35;0.60;;;14.90;48.30;;;;;;5104698;28;27465;-41
2021/03/13 11:19:30;;;;;;;1.30;0.70;;;14.80;48.60;;;;;;5104656;28;27403;-39
2021/03/13 11:22:14;;;;;;;1.20;0.63;;;14.80;49.10;;;;;;5102418;28;27468;-39
2021/03/13 11:24:59;;;;;;;3.78;0.60;;;14.80;49.10;;;;;;5104739;28;27399;-40
2021/03/13 11:27:43;;;;;;;1.77;1.00;;;14.80;48.70;;;;;;5104372;28;27465;-40
2021/03/13 11:30:28;;;;;;;3.40;1.00;;;14.80;49.30;;;;;;5104647;28;27957;-39
2021/03/13 11:33:13;;;;;;;1.55;0.80;;;14.80;50.20;;;;;;5104038;28;27458;-40
2021/03/13 11:35:57;;;;;;;0.80;0.60;;;14.90;49.70;;;;;;5103279;28;27430;-41
2021/03/13 11:38:42;;;;;;;0.90;0.80;;;14.80;49.80;;;;;;5104524;28;27466;-39
2021/03/13 11:41:26;;;;;;;3.42;1.00;;;14.80;49.70;;;;;;5104182;28;27388;-40
2021/03/13 11:44:11;;;;;;;5.78;1.02;;;14.80;49.20;;;;;;5103449;28;27417;-40
2021/03/13 11:46:56;;;;;;;1.35;0.80;;;14.90;49.30;;;;;;5104451;28;27364;-39
2021/03/13 11:49:40;;;;;;;1.70;1.17;;;15.00;49.70;;;;;;5101160;28;27324;-41
2021/03/13 11:52:25;;;;;;;2.70;1.10;;;15.00;49.10;;;;;;5104259;28;27382;-40
2021/03/13 11:55:10;;;;;;;1.17;0.82;;;15.00;48.70;;;;;;5104416;28;27370;-40
2021/03/13 11:57:54;;;;;;;1.98;1.00;;;15.00;49.20;;;;;;5104504;28;27331;-40
2021/03/13 12:00:40;;;;;;;1.52;0.73;;;14.90;49.20;;;;;;5107705;27;27368;-40
2021/03/13 12:03:24;;;;;;;0.90;0.73;;;14.90;48.50;;;;;;5107233;28;27572;-39
2021/03/13 12:06:09;;;;;;;0.80;0.60;;;14.70;48.90;;;;;;5107610;28;27428;-40
2021/03/13 12:08:53;;;;;;;1.77;0.65;;;14.60;49.10;;;;;;5107940;28;27342;-39
2021/03/13 12:11:38;;;;;;;4.22;0.80;;;14.50;49.50;;;;;;5107616;28;27343;-39
2021/03/13 12:14:22;;;;;;;1.60;0.70;;;14.30;49.60;;;;;;5107490;28;27332;-40
2021/03/13 12:17:10;;;;;;;4.57;0.73;;;14.20;50.00;;;;;;5107518;28;27406;-39
2021/03/13 12:19:55;;;;;;;0.80;0.52;;;14.10;50.10;;;;;;5107467;28;27336;-37
2021/03/13 12:22:39;;;;;;;2.63;0.38;;;14.00;50.50;;;;;;5106549;28;27437;-38
2021/03/13 12:25:24;;;;;;;4.07;0.35;;;13.90;51.10;;;;;;5107430;28;27336;-40
2021/03/13 12:28:08;;;;;;;0.50;0.30;;;13.80;51.40;;;;;;5107126;28;27445;-39
2021/03/13 12:30:53;;;;;;;1.92;0.40;;;13.80;51.50;;;;;;5103832;28;27340;-40
2021/03/13 12:33:37;;;;;;;1.67;0.60;;;13.70;52.20;;;;;;5107075;28;27400;-40
2021/03/13 12:36:22;;;;;;;2.05;0.60;;;13.70;52.30;;;;;;5107028;28;27419;-39
2021/03/13 12:39:06;;;;;;;1.33;0.52;;;13.70;52.30;;;;;;5106938;28;27415;-41
2021/03/13 12:41:50;;;;;;;0.68;0.40;;;13.80;52.60;;;;;;5106993;28;27423;-39
2021/03/13 12:44:35;;;;;;;1.95;0.60;;;13.80;52.50;;;;;;5107199;28;27429;-37
2021/03/13 12:47:20;;;;;;;1.67;0.75;;;13.90;52.50;;;;;;5107089;28;27429;-39
2021/03/13 12:50:06;;;;;;;0.55;0.40;;;14.00;52.50;;;;;;5107035;28;27468;-40
2021/03/13 12:52:50;;;;;;;0.57;0.32;;;14.10;52.30;;;;;;5107054;28;27422;-40
2021/03/13 12:55:35;;;;;;;5.82;1.50;;;14.20;52.40;;;;;;5106213;28;27441;-39
2021/03/13 12:58:20;;;;;;;1.50;0.47;;;14.20;52.40;;;;;;5106946;28;27544;-40
2021/03/13 13:01:04;;;;;;;1.70;0.60;;;14.30;52.80;;;;;;5106916;28;27481;-38
2021/03/13 13:03:59;;;;;;;1.85;0.50;;;14.30;52.70;;;;;;5106860;28;27465;-40
2021/03/13 13:06:44;;;;;;;1.77;0.75;;;14.50;53.10;;;;;;5107043;28;27450;-37
2021/03/13 13:09:28;;;;;;;3.67;0.85;;;14.60;52.80;;;;;;5102901;28;28002;-38
2021/03/13 13:12:13;;;;;;;1.67;0.65;;;14.70;53.00;;;;;;5106315;27;27434;-41
2021/03/13 13:14:57;;;;;;;3.88;0.80;;;14.80;52.70;;;;;;5106881;28;27446;-40
2021/03/13 13:17:42;;;;;;;1.80;0.70;;;14.80;52.90;;;;;;5105795;28;27517;-40
2021/03/13 13:20:26;;;;;;;1.23;0.80;;;14.70;53.10;;;;;;5106684;28;27358;-40
2021/03/13 13:23:11;;;;;;;2.63;1.20;;;14.60;53.40;;;;;;5106445;28;27324;-40
2021/03/13 13:25:56;;;;;;;2.88;1.33;;;14.30;53.80;;;;;;5103560;28;27364;-39
2021/03/13 13:28:40;;;;;;;1.85;1.10;;;14.00;54.40;;;;;;5106340;28;27340;-41
2021/03/13 13:31:25;;;;;;;0.98;0.63;;;13.70;55.30;;;;;;5106247;28;27451;-39
2021/03/13 13:34:10;;;;;;;2.88;0.55;;;13.40;55.30;;;;;;5106286;28;27381;-46
2021/03/13 13:36:54;;;;;;;0.45;0.32;;;13.10;55.60;;;;;;5106519;28;27320;-41
2021/03/13 13:39:39;;;;;;;2.63;0.47;;;12.80;56.10;;;;;;5106251;28;27390;-41
2021/03/13 13:42:24;;;;;;;1.67;0.35;;;12.50;57.00;;;;;;5106174;28;27336;-37
2021/03/13 13:45:10;;;;;;;0.65;0.40;;;12.30;57.40;;;;;;5106165;28;27401;-39
2021/03/13 13:47:55;;;;;;;0.38;0.30;;;12.20;57.90;;;;;;5106443;28;27384;-37
2021/03/13 13:50:42;;;;;;;2.63;0.32;;;12.20;58.10;;;;;;5106424;28;27390;-40
2021/03/13 13:53:26;;;;;;;0.32;0.25;;;12.10;58.40;;;;;;5105564;28;27941;-42
2021/03/13 13:56:11;;;;;;;0.40;0.40;;;12.00;58.60;;;;;;5106207;28;27410;-41
2021/03/13 13:58:55;;;;;;;0.73;0.40;;;12.00;59.00;;;;;;5106209;28;27418;-40
2021/03/13 14:01:40;;;;;;;1.10;0.40;;;12.00;58.90;;;;;;5106120;28;27323;-39
2021/03/13 14:04:24;;;;;;;0.55;0.40;;;12.00;58.90;;;;;;5105735;28;27339;-39
2021/03/13 14:07:09;;;;;;;0.40;0.30;;;12.00;59.00;;;;;;5105788;28;27339;-40
2021/03/13 14:09:53;;;;;;;1.80;0.68;;;12.00;59.40;;;;;;5105784;28;27394;-42
2021/03/13 14:12:38;;;;;;;1.20;0.40;;;12.10;59.40;;;;;;5105814;28;27370;-39
2021/03/13 14:15:23;;;;;;;0.73;0.47;;;12.20;59.10;;;;;;5102568;28;27335;-40
2021/03/13 14:18:08;;;;;;;0.40;0.40;;;12.40;58.80;;;;;;5104656;28;27339;-42
2021/03/13 14:20:52;;;;;;;0.60;0.40;;;12.60;58.70;;;;;;5105253;28;27577;-39
2021/03/13 14:23:37;;;;;;;1.05;0.35;;;12.70;58.50;;;;;;5104492;27;27367;-41
2021/03/13 14:26:21;;;;;;;0.82;0.55;;;12.70;58.00;;;;;;5105848;28;27467;-41
2021/03/13 14:29:06;;;;;;;0.50;0.50;;;12.70;57.90;;;;;;5105594;28;27433;-40
2021/03/13 14:31:51;;;;;;;1.10;0.50;;;12.60;58.60;;;;;;5105351;28;27457;-39
2021/03/13 14:34:35;;;;;;;0.60;0.60;;;12.50;58.80;;;;;;5105256;28;27382;-40